KMSO/MSO METAR and TAF weather

Enter ICAO airport designator
Station Type Date Time Source
KMSO METAR 2019/08/24 06:53 UTC NOAA

KMSO 240653Z AUTO 27006KT 10SM CLR 16/12 A2990 RMK AO2 SLP108 T01610117 402780106


Station Type Date Time Source
KMSO Decoded METAR 2019/08/24 06:53 UTC NOAA

Station name not available
Aug 24, 2019 - 02:53 AM EDT / 2019.08.24 0653 UTC
Wind: from the W (270 degrees) at 7 MPH (6 KT):0
Visibility: 10 mile(s):0
Sky conditions: clear
Temperature: 61.0 F (16.1 C)
Dew Point: 53.1 F (11.7 C)
Relative Humidity: 75%
Pressure (altimeter): 29.9 in. Hg (1012 hPa)
ob: KMSO 240653Z AUTO 27006KT 10SM CLR 16/12 A2990 RMK AO2 SLP108 T01610117 402780106
cycle: 7

Station Type Date Time Source
KMSO TAF 2019/08/24 06:22 UTC NOAA

TAF KMSO 240520Z 2406/2506 15004KT P6SM BKN110
FM241900 27011KT P6SM BKN100
FM242100 29018G28KT P6SM SCT150
FM250300 31007KT P6SM SCT200

Example: see airport list